Time;durP1;ratioP1;P1;durP2;ratioP2;P2;SDS_P1;SDS_P2;PMS_P1;PMS_P2;Temp;Humidity;BMP_temperature;BMP_pressure;BME280_temperature;BME280_humidity;BME280_pressure;Samples;Min_cycle;Max_cycle;Signal;HPM_P1;HPM_P2
2021/10/17 00:01:26;;;;;;;42.58;38.42;;;6.70;93.80;;;;;;5027431;28;20213;-70
2021/10/17 00:03:53;;;;;;;43.42;39.33;;;6.70;93.90;;;;;;5024479;28;20208;-69
2021/10/17 00:06:20;;;;;;;42.25;38.35;;;6.70;95.00;;;;;;5027052;28;20291;-70
2021/10/17 00:08:47;;;;;;;41.50;37.90;;;6.70;95.50;;;;;;5027250;28;20193;-70
2021/10/17 00:11:14;;;;;;;41.33;37.53;;;6.70;95.10;;;;;;5024238;28;20320;-70
2021/10/17 00:13:41;;;;;;;42.83;39.08;;;6.60;94.80;;;;;;5024060;28;20287;-69
2021/10/17 00:16:08;;;;;;;40.75;37.45;;;6.60;94.50;;;;;;5027883;28;20227;-69
2021/10/17 00:18:36;;;;;;;41.78;37.88;;;6.60;94.30;;;;;;5029094;28;20323;-69
2021/10/17 00:21:03;;;;;;;41.67;38.00;;;6.70;93.90;;;;;;5026255;28;20246;-70
2021/10/17 00:23:30;;;;;;;40.97;37.38;;;6.70;93.90;;;;;;5026112;28;20287;-70
2021/10/17 00:25:57;;;;;;;43.83;39.58;;;6.60;94.10;;;;;;5026799;28;20211;-70
2021/10/17 00:28:24;;;;;;;41.80;37.70;;;6.60;94.30;;;;;;5027455;28;20192;-70
2021/10/17 00:30:51;;;;;;;40.65;36.95;;;6.60;94.30;;;;;;5035175;28;20231;-70
2021/10/17 00:33:18;;;;;;;43.83;39.72;;;6.60;94.50;;;;;;5028077;28;20215;-69
2021/10/17 00:35:46;;;;;;;40.35;36.75;;;6.70;94.80;;;;;;5026106;28;20244;-70
2021/10/17 00:38:13;;;;;;;43.72;39.40;;;6.70;94.70;;;;;;5030359;28;20284;-70
2021/10/17 00:40:40;;;;;;;41.45;37.90;;;6.70;94.40;;;;;;5024557;28;20194;-70
2021/10/17 00:43:07;;;;;;;40.47;36.88;;;6.70;94.10;;;;;;5027538;28;20202;-70
2021/10/17 00:45:34;;;;;;;40.78;37.17;;;6.60;94.30;;;;;;5023327;28;20205;-70
2021/10/17 00:48:04;;;;;;;39.70;36.22;;;6.60;94.30;;;;;;5028263;28;20203;-70
2021/10/17 00:50:32;;;;;;;43.58;39.40;;;6.60;93.90;;;;;;5025717;28;20241;-70
2021/10/17 00:53:00;;;;;;;40.38;36.97;;;6.60;94.00;;;;;;5027082;28;20228;-69
2021/10/17 00:55:29;;;;;;;41.72;37.83;;;6.60;94.40;;;;;;5025579;28;20202;-69
2021/10/17 00:57:59;;;;;;;43.05;39.00;;;6.60;94.40;;;;;;5027517;28;20188;-69
2021/10/17 01:00:27;;;;;;;41.13;37.53;;;6.60;94.50;;;;;;5026578;28;20231;-69
2021/10/17 01:02:53;;;;;;;42.55;38.75;;;6.50;94.60;;;;;;5027218;28;20200;-69
2021/10/17 01:05:20;;;;;;;43.05;39.13;;;6.50;94.40;;;;;;5028220;28;20193;-69
2021/10/17 01:07:48;;;;;;;41.92;38.22;;;6.50;94.70;;;;;;5026336;28;20248;-69
2021/10/17 01:10:19;;;;;;;39.30;36.00;;;6.50;94.70;;;;;;5025684;28;20951;-69
2021/10/17 01:12:46;;;;;;;42.13;38.22;;;6.50;94.70;;;;;;5026976;28;20200;-69
2021/10/17 01:15:13;;;;;;;39.92;36.53;;;6.50;94.70;;;;;;5025548;28;20325;-69
2021/10/17 01:17:40;;;;;;;40.80;36.95;;;6.50;94.60;;;;;;5028021;28;20221;-69
2021/10/17 01:20:10;;;;;;;41.35;37.70;;;6.60;95.00;;;;;;5024657;28;20250;-69
2021/10/17 01:22:39;;;;;;;41.63;37.50;;;6.60;95.20;;;;;;5028529;28;20411;-69
2021/10/17 01:25:07;;;;;;;41.92;38.13;;;6.60;95.10;;;;;;5023728;28;20725;-69
2021/10/17 01:27:33;;;;;;;41.08;37.58;;;6.60;95.10;;;;;;5028008;28;20196;-70
2021/10/17 01:30:00;;;;;;;41.00;37.40;;;6.60;95.10;;;;;;5026526;28;20208;-70
2021/10/17 01:32:27;;;;;;;40.97;37.47;;;6.60;95.00;;;;;;5028924;28;20307;-70
2021/10/17 01:34:54;;;;;;;41.13;37.35;;;6.60;94.90;;;;;;5023992;28;20229;-70
2021/10/17 01:37:22;;;;;;;42.42;38.72;;;6.70;95.00;;;;;;5026746;28;20256;-70
2021/10/17 01:39:49;;;;;;;40.83;37.42;;;6.70;95.10;;;;;;5025310;28;20211;-70
2021/10/17 01:42:16;;;;;;;44.15;40.15;;;6.70;95.20;;;;;;5027519;28;20217;-70
2021/10/17 01:44:43;;;;;;;42.58;38.75;;;6.70;95.30;;;;;;5024413;28;20221;-70
2021/10/17 01:47:11;;;;;;;43.20;39.20;;;6.80;95.40;;;;;;5027552;28;20200;-70
2021/10/17 01:49:38;;;;;;;42.30;38.30;;;6.80;95.70;;;;;;5023550;28;20208;-70
2021/10/17 01:52:07;;;;;;;42.67;38.90;;;6.80;95.80;;;;;;5029498;28;20255;-70
2021/10/17 01:54:36;;;;;;;42.60;38.90;;;6.80;96.30;;;;;;5021558;28;20248;-69
2021/10/17 01:57:03;;;;;;;45.33;41.08;;;6.90;96.30;;;;;;5027441;28;20228;-68
2021/10/17 01:59:30;;;;;;;44.55;40.53;;;6.90;96.30;;;;;;5025215;28;20193;-69
2021/10/17 02:01:57;;;;;;;42.20;38.38;;;6.90;96.20;;;;;;5026186;28;20970;-69
2021/10/17 02:04:24;;;;;;;44.88;40.90;;;7.00;96.10;;;;;;5020029;28;20208;-69
2021/10/17 02:06:51;;;;;;;43.67;39.75;;;7.00;96.10;;;;;;5026298;28;20284;-69
2021/10/17 02:09:17;;;;;;;45.03;40.83;;;7.00;96.60;;;;;;5025885;28;20204;-69
2021/10/17 02:11:46;;;;;;;44.67;40.63;;;7.00;96.60;;;;;;5023123;28;20228;-69
2021/10/17 02:14:13;;;;;;;44.10;40.38;;;7.10;96.40;;;;;;5024916;28;20218;-69
2021/10/17 02:16:39;;;;;;;44.22;40.42;;;7.10;96.40;;;;;;5018205;28;20312;-69
2021/10/17 02:19:06;;;;;;;45.42;41.38;;;7.10;96.30;;;;;;5025297;28;20200;-69
2021/10/17 02:21:33;;;;;;;44.38;40.08;;;7.10;96.30;;;;;;5025885;28;20231;-69
2021/10/17 02:24:00;;;;;;;45.20;41.20;;;7.20;96.30;;;;;;5024425;28;20565;-69
2021/10/17 02:26:27;;;;;;;44.00;39.70;;;7.20;97.40;;;;;;5027737;28;20204;-69
2021/10/17 02:28:55;;;;;;;42.42;38.33;;;7.30;97.00;;;;;;5026131;28;20201;-69
2021/10/17 02:31:22;;;;;;;44.03;39.80;;;7.30;96.70;;;;;;5023631;28;20665;-69
2021/10/17 02:33:49;;;;;;;41.97;38.08;;;7.20;96.50;;;;;;5024615;28;20235;-70
2021/10/17 02:36:16;;;;;;;40.38;36.83;;;7.30;96.40;;;;;;5018933;28;20198;-70
2021/10/17 02:38:43;;;;;;;40.72;37.22;;;7.30;96.20;;;;;;5024393;28;20205;-69
2021/10/17 02:41:10;;;;;;;40.13;36.78;;;7.30;96.30;;;;;;5024891;28;20221;-69
2021/10/17 02:43:37;;;;;;;41.10;37.45;;;7.30;96.40;;;;;;5024694;28;20813;-69
2021/10/17 02:46:05;;;;;;;40.13;36.70;;;7.30;96.30;;;;;;5028214;28;20364;-69
2021/10/17 02:48:32;;;;;;;38.63;35.38;;;7.30;96.10;;;;;;5030745;28;20881;-69
2021/10/17 02:50:59;;;;;;;38.97;35.70;;;7.30;95.80;;;;;;5028876;28;20231;-69
2021/10/17 02:53:26;;;;;;;38.00;34.92;;;7.30;95.80;;;;;;5027335;28;20197;-69
2021/10/17 02:55:53;;;;;;;37.83;34.78;;;7.20;95.60;;;;;;5029404;28;20284;-69
2021/10/17 02:58:20;;;;;;;40.28;36.85;;;7.30;95.60;;;;;;5030255;28;20217;-69
2021/10/17 03:00:47;;;;;;;39.88;36.20;;;7.40;95.40;;;;;;5027910;28;20221;-70
2021/10/17 03:03:16;;;;;;;41.25;37.67;;;7.40;94.80;;;;;;5028958;28;20220;-69
2021/10/17 03:05:43;;;;;;;38.40;35.35;;;7.50;94.80;;;;;;5029540;28;20288;-69
2021/10/17 03:08:09;;;;;;;38.20;34.90;;;7.50;94.70;;;;;;5029035;28;20280;-69
2021/10/17 03:10:36;;;;;;;37.95;34.80;;;7.40;94.60;;;;;;5022603;28;20204;-69
2021/10/17 03:13:03;;;;;;;38.38;35.45;;;7.50;94.40;;;;;;5024930;28;20208;-68
2021/10/17 03:15:30;;;;;;;38.95;35.38;;;7.50;94.20;;;;;;5027952;28;20296;-69
2021/10/17 03:17:57;;;;;;;35.72;32.83;;;7.50;93.90;;;;;;5028766;28;20216;-69
2021/10/17 03:20:26;;;;;;;38.50;35.25;;;7.50;93.90;;;;;;5023615;28;20200;-69
2021/10/17 03:22:53;;;;;;;39.95;36.65;;;7.40;94.00;;;;;;5029409;28;20202;-70
2021/10/17 03:25:20;;;;;;;37.70;34.60;;;7.50;94.10;;;;;;5026494;28;20204;-70
2021/10/17 03:27:47;;;;;;;38.35;35.08;;;7.50;94.00;;;;;;5029922;28;20803;-70
2021/10/17 03:30:14;;;;;;;36.95;34.03;;;7.40;94.30;;;;;;5027401;28;20205;-70
2021/10/17 03:32:41;;;;;;;34.80;32.03;;;7.30;94.40;;;;;;5027270;28;20279;-70
2021/10/17 03:35:09;;;;;;;38.05;34.80;;;7.30;94.50;;;;;;5027648;28;20205;-70
2021/10/17 03:37:37;;;;;;;37.90;34.80;;;7.30;94.50;;;;;;5026885;28;20223;-70
2021/10/17 03:40:06;;;;;;;38.50;35.58;;;7.20;94.80;;;;;;5028141;28;20203;-70
2021/10/17 03:42:33;;;;;;;37.67;34.42;;;7.30;94.90;;;;;;5027273;28;20731;-70
2021/10/17 03:45:00;;;;;;;37.95;34.95;;;7.20;95.10;;;;;;5026855;28;20198;-69
2021/10/17 03:47:27;;;;;;;37.53;34.33;;;7.30;94.90;;;;;;5029552;28;20280;-70
2021/10/17 03:49:53;;;;;;;39.42;36.03;;;7.30;95.10;;;;;;5027883;28;20212;-70
2021/10/17 03:52:20;;;;;;;37.50;34.50;;;7.20;95.30;;;;;;5027694;28;20209;-70
2021/10/17 03:54:49;;;;;;;35.80;32.85;;;7.20;95.50;;;;;;5026584;28;20721;-70
2021/10/17 03:57:15;;;;;;;38.17;35.08;;;7.10;95.60;;;;;;5029632;28;20231;-70
2021/10/17 03:59:42;;;;;;;36.88;33.88;;;7.20;95.60;;;;;;5027584;28;20205;-70
2021/10/17 04:02:09;;;;;;;36.17;33.17;;;7.20;95.40;;;;;;5027406;28;20244;-70
2021/10/17 04:04:36;;;;;;;37.85;34.67;;;7.20;95.30;;;;;;5025206;28;20193;-70
2021/10/17 04:07:03;;;;;;;37.90;34.80;;;7.20;95.40;;;;;;5030231;28;20190;-70
2021/10/17 04:09:30;;;;;;;36.25;33.17;;;7.20;95.30;;;;;;5028499;28;20199;-70
2021/10/17 04:11:58;;;;;;;40.92;37.63;;;7.30;95.20;;;;;;5027397;28;20220;-70
2021/10/17 04:14:25;;;;;;;39.10;35.95;;;7.20;95.30;;;;;;5025732;28;20204;-70
2021/10/17 04:16:52;;;;;;;39.03;35.88;;;7.20;95.30;;;;;;5028518;28;20201;-70
2021/10/17 04:19:19;;;;;;;38.42;35.25;;;7.20;95.30;;;;;;5028316;28;20200;-69
2021/10/17 04:21:46;;;;;;;39.50;36.30;;;7.20;95.40;;;;;;5028785;28;20223;-69
2021/10/17 04:24:13;;;;;;;39.75;36.60;;;7.20;95.50;;;;;;5026661;28;20201;-69
2021/10/17 04:26:40;;;;;;;37.55;34.40;;;7.20;95.60;;;;;;5028590;28;20197;-69
2021/10/17 04:29:08;;;;;;;39.85;36.65;;;7.20;95.70;;;;;;5027851;28;20190;-69
2021/10/17 04:31:35;;;;;;;40.10;36.72;;;7.20;95.60;;;;;;5027818;28;20229;-69
2021/10/17 04:34:02;;;;;;;38.47;35.38;;;7.20;95.50;;;;;;5026716;28;20682;-69
2021/10/17 04:36:29;;;;;;;38.58;35.47;;;7.20;95.50;;;;;;5027748;28;20217;-69
2021/10/17 04:38:56;;;;;;;39.65;36.22;;;7.20;95.50;;;;;;5022087;28;20229;-69
2021/10/17 04:41:23;;;;;;;37.28;34.38;;;7.30;95.40;;;;;;5026645;28;20214;-69
2021/10/17 04:43:50;;;;;;;37.15;34.03;;;7.20;95.30;;;;;;5023723;28;20206;-69
2021/10/17 04:46:18;;;;;;;39.13;35.83;;;7.20;95.40;;;;;;5025804;28;20201;-69
2021/10/17 04:48:45;;;;;;;39.35;36.00;;;7.30;95.20;;;;;;5028638;28;20197;-69
2021/10/17 04:51:12;;;;;;;41.00;37.50;;;7.30;94.90;;;;;;5024901;28;20222;-69
2021/10/17 04:53:39;;;;;;;39.17;35.75;;;7.20;95.20;;;;;;5027090;28;20204;-69
2021/10/17 04:56:06;;;;;;;38.47;35.15;;;7.20;95.30;;;;;;5027965;28;20197;-69
2021/10/17 04:58:33;;;;;;;37.08;34.17;;;7.30;95.30;;;;;;5026790;28;20675;-69
2021/10/17 05:01:00;;;;;;;37.40;34.50;;;7.30;95.20;;;;;;5025834;28;20282;-69
2021/10/17 05:03:28;;;;;;;37.00;34.00;;;7.30;95.30;;;;;;5026916;28;20200;-69
2021/10/17 05:05:55;;;;;;;38.20;35.00;;;7.30;95.40;;;;;;5025867;28;20200;-69
2021/10/17 05:08:22;;;;;;;37.17;34.40;;;7.40;95.10;;;;;;5028947;28;20224;-69
2021/10/17 05:10:49;;;;;;;38.00;34.95;;;7.40;95.10;;;;;;5027768;28;20240;-69
2021/10/17 05:13:16;;;;;;;41.05;37.55;;;7.40;95.10;;;;;;5028024;28;20205;-69
2021/10/17 05:15:43;;;;;;;38.55;35.50;;;7.50;95.20;;;;;;5026923;28;20200;-69
2021/10/17 05:18:09;;;;;;;38.85;35.75;;;7.50;95.20;;;;;;5019129;28;20219;-69
2021/10/17 05:20:38;;;;;;;38.47;35.38;;;7.60;95.10;;;;;;5026798;28;20287;-69
2021/10/17 05:23:05;;;;;;;37.55;34.55;;;7.60;95.00;;;;;;5025565;28;20571;-69
2021/10/17 05:25:32;;;;;;;36.88;33.88;;;7.60;95.00;;;;;;5027164;28;20232;-69
2021/10/17 05:27:59;;;;;;;39.60;36.20;;;7.60;95.00;;;;;;5028386;28;20200;-69
2021/10/17 05:30:26;;;;;;;37.60;34.40;;;7.50;95.10;;;;;;5024776;28;20224;-69
2021/10/17 05:32:53;;;;;;;39.03;35.83;;;7.50;95.30;;;;;;5027406;28;20228;-69
2021/10/17 05:35:20;;;;;;;37.67;34.75;;;7.50;95.20;;;;;;5027583;28;20964;-69
2021/10/17 05:37:48;;;;;;;38.55;35.35;;;7.50;95.20;;;;;;5028179;28;20224;-69
2021/10/17 05:40:15;;;;;;;38.38;35.30;;;7.40;95.40;;;;;;5026264;28;20201;-69
2021/10/17 05:42:42;;;;;;;35.97;33.10;;;7.40;95.50;;;;;;5028245;28;20598;-69
2021/10/17 05:45:10;;;;;;;37.72;34.80;;;7.40;95.60;;;;;;5026635;28;20209;-69
2021/10/17 05:47:37;;;;;;;37.47;34.67;;;7.50;95.40;;;;;;5027715;28;20197;-70
2021/10/17 05:50:05;;;;;;;39.65;36.58;;;7.40;95.10;;;;;;5022065;28;20201;-70
2021/10/17 05:52:32;;;;;;;39.58;36.55;;;7.40;95.10;;;;;;5027980;28;20244;-70
2021/10/17 05:55:00;;;;;;;36.50;33.60;;;7.50;95.30;;;;;;5025764;28;20678;-70
2021/10/17 05:57:27;;;;;;;39.20;36.20;;;7.40;95.10;;;;;;5028264;28;20209;-70
2021/10/17 05:59:54;;;;;;;37.47;34.58;;;7.50;95.00;;;;;;5023674;28;20205;-70
2021/10/17 06:02:21;;;;;;;37.55;34.83;;;7.50;95.00;;;;;;5024519;28;20229;-70
2021/10/17 06:04:48;;;;;;;38.70;35.38;;;7.50;94.90;;;;;;5024496;28;20281;-70
2021/10/17 06:07:15;;;;;;;37.47;34.33;;;7.50;94.80;;;;;;5027512;28;20204;-70
2021/10/17 06:09:41;;;;;;;39.50;36.22;;;7.60;94.70;;;;;;5016934;28;20286;-69
2021/10/17 06:12:10;;;;;;;38.88;35.67;;;7.50;94.60;;;;;;5023999;28;20695;-70
2021/10/17 06:14:37;;;;;;;38.22;35.17;;;7.50;94.50;;;;;;5025119;28;20197;-69
2021/10/17 06:17:05;;;;;;;37.47;34.35;;;7.50;94.50;;;;;;5026372;28;20204;-69
2021/10/17 06:19:32;;;;;;;36.50;33.75;;;7.60;94.40;;;;;;5028947;28;20220;-70
2021/10/17 06:22:03;;;;;;;41.92;38.53;;;7.60;94.30;;;;;;5027798;28;20465;-70
2021/10/17 06:24:30;;;;;;;38.28;35.22;;;7.70;93.90;;;;;;5028077;28;20216;-71
2021/10/17 06:26:57;;;;;;;39.63;36.42;;;7.70;93.50;;;;;;5031581;28;20193;-71
2021/10/17 06:29:26;;;;;;;39.05;36.10;;;7.70;93.70;;;;;;5029328;28;20292;-71
2021/10/17 06:31:53;;;;;;;37.05;33.95;;;7.80;93.70;;;;;;5027279;28;20245;-71
2021/10/17 06:34:20;;;;;;;38.15;35.20;;;7.80;93.60;;;;;;5027326;28;20233;-71
2021/10/17 06:36:48;;;;;;;36.95;34.15;;;7.90;93.30;;;;;;5028006;28;20210;-71
2021/10/17 06:39:15;;;;;;;37.20;34.42;;;8.00;92.90;;;;;;5026697;28;20807;-72
2021/10/17 06:41:42;;;;;;;37.22;34.38;;;8.10;92.80;;;;;;5027628;28;20304;-71
2021/10/17 06:44:09;;;;;;;37.67;34.78;;;8.20;92.30;;;;;;5024900;28;20296;-71
2021/10/17 06:46:37;;;;;;;54.75;36.47;;;8.30;92.70;;;;;;5027713;28;20201;-71
2021/10/17 06:49:04;;;;;;;37.45;34.60;;;8.40;95.10;;;;;;5021488;28;20296;-70
2021/10/17 06:51:31;;;;;;;37.72;34.78;;;8.50;94.10;;;;;;5030853;28;20565;-71
2021/10/17 06:53:58;;;;;;;34.63;31.92;;;8.50;92.50;;;;;;5027086;28;20279;-72
2021/10/17 06:56:25;;;;;;;35.30;32.67;;;8.50;91.50;;;;;;5029392;28;20204;-71
2021/10/17 06:58:52;;;;;;;36.95;34.15;;;8.40;90.60;;;;;;5030532;28;20232;-70
2021/10/17 07:01:18;;;;;;;35.15;32.42;;;8.40;90.40;;;;;;5026509;28;20223;-71
2021/10/17 07:03:47;;;;;;;37.83;34.67;;;8.50;90.70;;;;;;5025014;28;20194;-69
2021/10/17 07:06:14;;;;;;;36.88;34.08;;;8.60;92.10;;;;;;5030275;28;20268;-69
2021/10/17 07:08:41;;;;;;;35.88;33.10;;;8.70;91.00;;;;;;5023243;28;20280;-69
2021/10/17 07:11:08;;;;;;;38.00;34.97;;;8.70;90.30;;;;;;5028623;28;20303;-70
2021/10/17 07:13:35;;;;;;;36.40;33.50;;;8.80;89.90;;;;;;5037718;28;20201;-69
2021/10/17 07:16:02;;;;;;;36.80;33.60;;;8.70;89.70;;;;;;5019396;28;20951;-68
2021/10/17 07:18:29;;;;;;;36.00;33.30;;;8.80;90.20;;;;;;5026232;28;20475;-69
2021/10/17 07:20:58;;;;;;;34.50;31.73;;;9.10;90.00;;;;;;5021173;28;20258;-70
2021/10/17 07:23:24;;;;;;;36.53;33.70;;;9.10;88.40;;;;;;5029520;28;20655;-68
2021/10/17 07:25:51;;;;;;;38.42;35.33;;;9.10;88.70;;;;;;5017196;28;20452;-68
2021/10/17 07:28:18;;;;;;;36.00;33.40;;;9.10;88.20;;;;;;5030917;28;20567;-68
2021/10/17 07:30:45;;;;;;;35.10;32.60;;;9.10;88.20;;;;;;5029812;28;20495;-68
2021/10/17 07:33:12;;;;;;;39.97;36.47;;;9.20;87.80;;;;;;5028717;28;20193;-68
2021/10/17 07:35:39;;;;;;;47.87;43.17;;;9.30;88.30;;;;;;5025722;28;20950;-68
2021/10/17 07:38:07;;;;;;;51.30;45.83;;;9.30;89.50;;;;;;5024757;28;20571;-68
2021/10/17 07:40:35;;;;;;;41.17;37.43;;;9.40;88.40;;;;;;5028506;28;20470;-68
2021/10/17 07:43:02;;;;;;;36.60;33.60;;;9.30;88.00;;;;;;5027019;28;20459;-69
2021/10/17 07:45:29;;;;;;;34.80;32.00;;;9.40;87.60;;;;;;5026677;28;21244;-69
2021/10/17 07:47:56;;;;;;;36.07;33.30;;;9.50;87.00;;;;;;5030184;28;20467;-69
2021/10/17 07:50:22;;;;;;;37.60;34.80;;;9.50;87.00;;;;;;5024423;28;20467;-68
2021/10/17 07:52:50;;;;;;;37.77;34.77;;;9.70;86.80;;;;;;5028577;28;20538;-68
2021/10/17 07:55:18;;;;;;;34.47;31.93;;;9.70;86.70;;;;;;5026287;28;20775;-69
2021/10/17 07:57:47;;;;;;;38.53;35.53;;;9.60;86.40;;;;;;5026111;28;20464;-69
2021/10/17 08:00:18;;;;;;;36.50;33.80;;;9.70;86.00;;;;;;5026767;28;20471;-69
2021/10/17 08:02:45;;;;;;;36.80;33.90;;;9.70;85.60;;;;;;5026818;28;20480;-68
2021/10/17 08:05:12;;;;;;;37.57;34.57;;;9.70;86.10;;;;;;5023529;28;20471;-68
2021/10/17 08:07:39;;;;;;;36.60;33.87;;;9.80;87.50;;;;;;5024902;28;20461;-68
2021/10/17 08:10:07;;;;;;;38.23;35.33;;;9.90;87.00;;;;;;5017546;28;20457;-68
2021/10/17 08:12:35;;;;;;;38.37;35.13;;;10.00;85.90;;;;;;5024068;28;20484;-69
2021/10/17 08:15:02;;;;;;;39.40;36.30;;;10.00;85.40;;;;;;5026763;28;21003;-69
2021/10/17 08:17:29;;;;;;;38.40;35.50;;;10.10;85.20;;;;;;5029718;28;20458;-68
2021/10/17 08:19:56;;;;;;;37.40;34.40;;;10.30;85.30;;;;;;5020686;28;20483;-68
2021/10/17 08:22:23;;;;;;;36.50;33.90;;;10.40;84.80;;;;;;5027363;28;20490;-68
2021/10/17 08:24:51;;;;;;;37.50;34.80;;;10.50;84.20;;;;;;5022269;28;20468;-68
2021/10/17 08:27:19;;;;;;;39.93;37.03;;;10.70;83.40;;;;;;5019737;28;20840;-69
2021/10/17 08:29:47;;;;;;;39.73;36.73;;;10.60;82.60;;;;;;5022864;28;20829;-69
2021/10/17 08:32:14;;;;;;;36.10;33.30;;;10.60;82.80;;;;;;5022586;28;20479;-69
2021/10/17 08:34:41;;;;;;;38.00;35.10;;;10.70;82.20;;;;;;5021403;28;20477;-68
2021/10/17 08:37:08;;;;;;;38.03;35.33;;;10.70;82.60;;;;;;5028676;28;20458;-69
2021/10/17 08:39:35;;;;;;;41.40;38.50;;;10.70;82.10;;;;;;5025959;28;20595;-69
2021/10/17 08:42:02;;;;;;;39.10;36.17;;;10.70;82.20;;;;;;5026695;28;20486;-68
2021/10/17 08:44:29;;;;;;;39.27;36.37;;;10.60;82.50;;;;;;5024318;28;20473;-68
2021/10/17 08:47:00;;;;;;;37.63;34.53;;;10.60;82.80;;;;;;5027131;28;20805;-69
2021/10/17 08:49:28;;;;;;;36.40;33.70;;;10.80;81.80;;;;;;5027145;28;20514;-71
2021/10/17 08:51:55;;;;;;;40.73;37.47;;;10.90;80.90;;;;;;5028516;28;20683;-69
2021/10/17 08:54:22;;;;;;;37.77;34.70;;;10.60;81.60;;;;;;5021970;28;20478;-69
2021/10/17 08:56:49;;;;;;;38.47;35.40;;;10.50;82.90;;;;;;5028166;28;20471;-68
2021/10/17 08:59:16;;;;;;;37.70;35.00;;;10.50;82.50;;;;;;5025122;28;20495;-69
2021/10/17 09:01:45;;;;;;;38.17;35.27;;;10.50;82.60;;;;;;5027630;28;20471;-69
2021/10/17 09:04:17;;;;;;;39.50;36.37;;;10.60;82.40;;;;;;5022407;28;20930;-69
2021/10/17 09:06:46;;;;;;;38.70;35.77;;;10.30;83.60;;;;;;5026493;28;20985;-69
2021/10/17 09:09:17;;;;;;;38.10;35.20;;;10.40;83.80;;;;;;5021241;28;20491;-69
2021/10/17 09:11:45;;;;;;;37.23;34.43;;;10.60;83.00;;;;;;5027768;28;20486;-69
2021/10/17 09:14:14;;;;;;;41.70;38.50;;;10.50;83.10;;;;;;5025433;28;20555;-68
2021/10/17 09:16:43;;;;;;;40.90;37.30;;;10.40;83.80;;;;;;5027081;28;20468;-68
2021/10/17 09:19:16;;;;;;;40.97;37.87;;;10.50;83.70;;;;;;5018497;28;20502;-69
2021/10/17 09:22:02;;;;;;;38.40;35.60;;;10.60;83.50;;;;;;5026054;28;20479;-69
2021/10/17 09:24:32;;;;;;;38.03;35.30;;;10.60;83.90;;;;;;5023581;28;20538;-69
2021/10/17 09:27:24;;;;;;;38.63;35.70;;;10.60;83.70;;;;;;5027382;28;21012;-68
2021/10/17 09:29:54;;;;;;;38.33;35.43;;;10.80;83.10;;;;;;5007552;28;20837;-69
2021/10/17 09:32:23;;;;;;;38.37;35.37;;;10.80;83.00;;;;;;5028139;28;20815;-68
2021/10/17 09:34:55;;;;;;;37.97;35.10;;;11.00;82.60;;;;;;5025893;28;20463;-69
2021/10/17 09:37:33;;;;;;;39.13;36.13;;;11.00;82.20;;;;;;5027966;28;20467;-68
2021/10/17 09:40:05;;;;;;;39.47;36.37;;;11.10;81.60;;;;;;5026556;28;20561;-69
2021/10/17 09:42:39;;;;;;;37.60;34.60;;;11.00;81.30;;;;;;5027572;28;21005;-69
2021/10/17 09:45:19;;;;;;;38.67;35.73;;;10.80;82.40;;;;;;5022363;28;20543;-68
2021/10/17 09:47:46;;;;;;;39.57;36.50;;;10.80;82.90;;;;;;5023996;28;20498;-68
2021/10/17 09:50:15;;;;;;;38.83;35.87;;;10.80;82.70;;;;;;5026331;28;20472;-69
2021/10/17 09:53:00;;;;;;;40.00;37.00;;;10.70;83.70;;;;;;5025531;28;20885;-69
2021/10/17 09:55:28;;;;;;;39.73;36.73;;;10.80;83.20;;;;;;5026673;28;20471;-69
2021/10/17 09:57:55;;;;;;;41.03;37.73;;;10.80;83.00;;;;;;5027400;28;20505;-69
2021/10/17 10:00:22;;;;;;;39.13;36.03;;;10.90;82.50;;;;;;5026531;28;20594;-69
2021/10/17 10:02:51;;;;;;;39.53;36.47;;;10.60;83.40;;;;;;5027225;28;20456;-68
2021/10/17 10:05:24;;;;;;;39.33;36.33;;;10.50;84.20;;;;;;5026117;28;20542;-72
2021/10/17 10:07:53;;;;;;;41.80;38.43;;;10.80;83.50;;;;;;5024859;28;20468;-72
2021/10/17 10:10:21;;;;;;;47.33;43.20;;;11.00;82.70;;;;;;5026067;28;20456;-75
2021/10/17 10:12:49;;;;;;;42.87;39.30;;;11.20;82.40;;;;;;5027769;28;20510;-73
2021/10/17 10:15:19;;;;;;;39.43;36.50;;;11.10;82.60;;;;;;5023030;28;21257;-74
2021/10/17 10:17:47;;;;;;;41.13;37.93;;;11.20;82.20;;;;;;5026442;28;20451;-70
2021/10/17 10:20:23;;;;;;;42.20;38.73;;;11.30;81.80;;;;;;5024377;28;20485;-69
2021/10/17 10:22:51;;;;;;;39.83;36.63;;;11.30;81.80;;;;;;5014799;28;20474;-69
2021/10/17 10:25:19;;;;;;;41.23;38.03;;;11.20;82.30;;;;;;5023606;28;20467;-70
2021/10/17 10:27:47;;;;;;;39.20;36.10;;;11.40;82.40;;;;;;5014668;28;20878;-70
2021/10/17 10:30:26;;;;;;;39.40;36.30;;;11.30;81.80;;;;;;5026189;28;20964;-70
2021/10/17 10:33:13;;;;;;;39.80;36.60;;;11.30;81.80;;;;;;5026310;28;20494;-70
2021/10/17 10:36:10;;;;;;;41.43;38.17;;;11.20;82.20;;;;;;5023776;28;20864;-69
2021/10/17 10:39:07;;;;;;;40.20;36.90;;;11.50;82.00;;;;;;5022390;28;20459;-70
2021/10/17 10:41:51;;;;;;;41.03;37.43;;;11.40;82.10;;;;;;4946238;28;21109;-70
2021/10/17 10:44:20;;;;;;;41.70;38.30;;;11.50;82.60;;;;;;5014545;28;20550;-70
2021/10/17 10:46:48;;;;;;;43.27;39.57;;;11.70;82.30;;;;;;5025654;28;20462;-70
2021/10/17 10:49:43;;;;;;;39.67;36.50;;;11.90;81.00;;;;;;5021216;28;20547;-70
2021/10/17 10:52:43;;;;;;;42.70;39.13;;;12.10;81.00;;;;;;5023019;28;20483;-70
2021/10/17 10:55:12;;;;;;;41.57;38.47;;;12.10;80.20;;;;;;5018438;28;20471;-70
2021/10/17 10:57:40;;;;;;;40.73;37.63;;;11.70;81.30;;;;;;5019860;28;20818;-70
2021/10/17 11:00:09;;;;;;;41.70;38.30;;;11.60;81.60;;;;;;5016918;28;20511;-70
2021/10/17 11:02:37;;;;;;;44.83;40.83;;;11.70;82.00;;;;;;5024604;28;21070;-70
2021/10/17 11:05:16;;;;;;;43.63;40.23;;;11.90;81.10;;;;;;5027005;28;20460;-70
2021/10/17 11:07:46;;;;;;;43.10;39.60;;;12.00;81.20;;;;;;5029308;28;20451;-69
2021/10/17 11:10:36;;;;;;;44.07;40.50;;;12.10;80.20;;;;;;5021473;28;20459;-70
2021/10/17 11:13:06;;;;;;;43.73;40.13;;;12.00;81.30;;;;;;5029312;28;20456;-70
2021/10/17 11:15:35;;;;;;;43.93;40.40;;;12.20;80.50;;;;;;5028846;28;20490;-70
2021/10/17 11:18:04;;;;;;;41.90;38.40;;;12.20;80.80;;;;;;5028054;28;20545;-70
2021/10/17 11:20:33;;;;;;;43.70;40.20;;;12.20;80.80;;;;;;5029650;28;20561;-70
2021/10/17 11:23:02;;;;;;;41.70;38.10;;;12.30;80.90;;;;;;5016969;28;20460;-70
2021/10/17 11:25:30;;;;;;;43.10;39.60;;;12.50;80.30;;;;;;5028919;28;20462;-70
2021/10/17 11:27:58;;;;;;;42.03;38.40;;;12.80;78.90;;;;;;5030095;28;20447;-70
2021/10/17 11:30:27;;;;;;;42.80;39.50;;;12.90;78.30;;;;;;5028500;28;20456;-70
2021/10/17 11:32:55;;;;;;;42.10;38.43;;;12.80;79.20;;;;;;5026864;28;20604;-70
2021/10/17 11:35:30;;;;;;;44.03;40.67;;;12.90;78.80;;;;;;5023466;28;20562;-71
2021/10/17 11:37:58;;;;;;;42.07;38.87;;;13.10;78.40;;;;;;5028619;28;20455;-69
2021/10/17 11:40:27;;;;;;;41.97;38.70;;;13.00;78.30;;;;;;5026583;28;20484;-69
2021/10/17 11:42:57;;;;;;;41.13;38.07;;;13.10;78.00;;;;;;5028869;28;20482;-70
2021/10/17 11:45:26;;;;;;;37.73;34.83;;;13.00;78.30;;;;;;5022546;28;20791;-70
2021/10/17 11:47:54;;;;;;;38.87;35.77;;;13.20;78.00;;;;;;5027964;28;20460;-70
2021/10/17 11:50:23;;;;;;;38.40;35.50;;;13.40;77.50;;;;;;5026527;28;20514;-70
2021/10/17 11:52:53;;;;;;;40.60;37.40;;;13.40;77.00;;;;;;5024883;28;20460;-70
2021/10/17 11:55:33;;;;;;;40.50;37.37;;;13.10;77.70;;;;;;5023410;28;20914;-69
2021/10/17 11:58:00;;;;;;;38.57;35.60;;;13.00;78.70;;;;;;5024131;28;20463;-69
2021/10/17 12:00:28;;;;;;;39.00;36.23;;;12.80;79.30;;;;;;5027071;28;20471;-71
2021/10/17 12:02:56;;;;;;;40.37;37.17;;;12.90;79.00;;;;;;5026658;28;20825;-70
2021/10/17 12:05:24;;;;;;;40.80;37.60;;;13.10;78.80;;;;;;5027471;28;20452;-69
2021/10/17 12:07:55;;;;;;;38.17;35.20;;;13.10;78.60;;;;;;5030114;28;20455;-69
2021/10/17 12:10:23;;;;;;;40.60;37.50;;;12.90;78.70;;;;;;5027840;28;20456;-68
2021/10/17 12:12:51;;;;;;;40.97;37.87;;;12.70;80.20;;;;;;5027032;28;20977;-69
2021/10/17 12:15:18;;;;;;;40.67;37.20;;;12.60;80.40;;;;;;5028123;28;20460;-69
2021/10/17 12:17:57;;;;;;;41.07;37.97;;;12.40;81.30;;;;;;5030066;28;20547;-69
2021/10/17 12:20:24;;;;;;;41.50;38.07;;;12.30;81.70;;;;;;5027022;28;21040;-70
2021/10/17 12:22:51;;;;;;;39.13;36.03;;;12.30;81.70;;;;;;5029571;28;20456;-69
2021/10/17 12:25:19;;;;;;;42.20;38.80;;;12.10;82.70;;;;;;5027111;28;20965;-69
2021/10/17 12:27:48;;;;;;;42.23;38.93;;;12.00;83.30;;;;;;5029341;28;20478;-70
2021/10/17 12:30:19;;;;;;;41.60;38.30;;;12.30;82.70;;;;;;5022788;28;20455;-70
2021/10/17 12:32:48;;;;;;;39.97;36.87;;;12.10;83.10;;;;;;5028909;28;20985;-69
2021/10/17 12:35:35;;;;;;;42.37;38.80;;;12.30;82.50;;;;;;5023811;28;20444;-70
2021/10/17 12:38:07;;;;;;;43.70;40.30;;;12.20;82.80;;;;;;5027287;28;20483;-69
2021/10/17 12:40:35;;;;;;;41.30;37.90;;;12.50;82.00;;;;;;5027262;28;20471;-69